Time;durP1;ratioP1;P1;durP2;ratioP2;P2;SDS_P1;SDS_P2;PMS_P1;PMS_P2;Temp;Humidity;BMP_temperature;BMP_pressure;BME280_temperature;BME280_humidity;BME280_pressure;Samples;Min_cycle;Max_cycle;Signal;HPM_P1;HPM_P2
2021/11/27 00:01:52;;;;;;;5.45;4.38;;;8.20;76.70;;;;;;5008944;28;20025;-82
2021/11/27 00:04:18;;;;;;;4.75;3.67;;;8.20;76.60;;;;;;5023037;28;20490;-84
2021/11/27 00:06:44;;;;;;;5.95;4.32;;;8.20;76.70;;;;;;5018399;28;20044;-82
2021/11/27 00:09:10;;;;;;;5.28;4.28;;;8.20;76.60;;;;;;4981898;28;20048;-81
2021/11/27 00:11:37;;;;;;;5.20;4.03;;;8.20;76.70;;;;;;5018177;28;20091;-82
2021/11/27 00:14:05;;;;;;;4.90;3.95;;;8.20;76.80;;;;;;5022675;28;20030;-82
2021/11/27 00:16:31;;;;;;;5.40;4.05;;;8.20;76.70;;;;;;5049264;28;20071;-82
2021/11/27 00:18:57;;;;;;;5.18;4.07;;;8.20;76.60;;;;;;5014433;28;20129;-82
2021/11/27 00:21:24;;;;;;;5.20;3.97;;;8.20;76.60;;;;;;5050027;28;20055;-84
2021/11/27 00:23:52;;;;;;;5.10;3.92;;;8.20;76.60;;;;;;5017171;28;20032;-82
2021/11/27 00:26:19;;;;;;;5.40;4.32;;;8.20;76.70;;;;;;5034692;28;20052;-82
2021/11/27 00:28:47;;;;;;;5.43;4.18;;;8.20;76.60;;;;;;5034910;28;20068;-81
2021/11/27 00:31:17;;;;;;;5.38;4.30;;;8.20;76.60;;;;;;4992459;28;20033;-82
2021/11/27 00:33:45;;;;;;;4.93;4.03;;;8.30;76.70;;;;;;5060476;28;21160;-84
2021/11/27 00:36:11;;;;;;;5.80;4.68;;;8.20;76.60;;;;;;4999610;28;20053;-82
2021/11/27 00:38:37;;;;;;;5.60;4.53;;;8.20;77.30;;;;;;5013449;28;20034;-81
2021/11/27 00:41:04;;;;;;;5.15;4.28;;;8.30;76.70;;;;;;5016345;28;20036;-87
2021/11/27 00:43:31;;;;;;;5.60;4.20;;;8.30;76.70;;;;;;5015061;28;20087;-81
2021/11/27 00:45:57;;;;;;;5.43;4.10;;;8.20;76.70;;;;;;5022028;28;20025;-82
2021/11/27 00:48:25;;;;;;;5.47;4.15;;;8.20;76.60;;;;;;4994710;28;20098;-83
2021/11/27 00:50:58;;;;;;;5.93;4.45;;;8.30;76.70;;;;;;5018358;28;20025;-81
2021/11/27 00:53:25;;;;;;;5.07;4.25;;;8.30;76.70;;;;;;5027898;28;20172;-83
2021/11/27 00:55:51;;;;;;;5.22;4.32;;;8.30;77.30;;;;;;5005545;28;20359;-81
2021/11/27 00:58:17;;;;;;;6.40;4.88;;;8.20;76.60;;;;;;5010559;28;20033;-82
2021/11/27 01:00:50;;;;;;;5.97;4.47;;;8.30;76.70;;;;;;5018137;28;20116;-80
2021/11/27 01:03:19;;;;;;;5.43;4.47;;;8.20;76.60;;;;;;5017353;28;20017;-81
2021/11/27 01:05:45;;;;;;;6.10;4.50;;;8.30;76.70;;;;;;5024028;28;20391;-81
2021/11/27 01:08:12;;;;;;;5.57;4.13;;;8.20;76.60;;;;;;5017833;28;20051;-81
2021/11/27 01:10:43;;;;;;;6.43;5.07;;;8.20;76.60;;;;;;5019285;28;20094;-82
2021/11/27 01:13:09;;;;;;;5.65;4.35;;;8.30;76.70;;;;;;5032856;28;20078;-81
2021/11/27 01:15:35;;;;;;;5.68;4.60;;;8.30;76.70;;;;;;5052143;28;20056;-83
2021/11/27 01:18:04;;;;;;;6.70;4.63;;;8.30;76.70;;;;;;5034422;28;20039;-82
2021/11/27 01:20:36;;;;;;;5.97;4.75;;;8.30;76.70;;;;;;5023455;28;20033;-84
2021/11/27 01:23:02;;;;;;;5.85;4.40;;;8.20;76.70;;;;;;5030373;28;20025;-82
2021/11/27 01:25:29;;;;;;;6.45;4.53;;;8.30;76.70;;;;;;5017475;28;20064;-82
2021/11/27 01:27:55;;;;;;;5.72;4.55;;;8.30;76.70;;;;;;5019158;28;20031;-82
2021/11/27 01:30:21;;;;;;;7.00;5.13;;;8.30;76.70;;;;;;5016655;28;20034;-85
2021/11/27 01:32:48;;;;;;;5.13;4.05;;;8.20;76.60;;;;;;5014684;28;20030;-86
2021/11/27 01:35:14;;;;;;;5.88;4.45;;;8.30;76.70;;;;;;5032257;28;20037;-82
2021/11/27 01:37:40;;;;;;;5.70;4.30;;;8.30;76.70;;;;;;5039968;28;20477;-81
2021/11/27 01:40:15;;;;;;;5.75;4.25;;;8.20;76.60;;;;;;5000562;28;20135;-81
2021/11/27 01:42:41;;;;;;;6.00;4.17;;;8.30;76.70;;;;;;5026201;28;20029;-82
2021/11/27 01:45:09;;;;;;;5.45;4.03;;;8.30;76.70;;;;;;5025315;28;20116;-83
2021/11/27 01:47:36;;;;;;;4.85;3.75;;;8.30;76.70;;;;;;5019028;28;20025;-81
2021/11/27 01:50:03;;;;;;;6.18;4.03;;;8.20;76.60;;;;;;5009009;28;20371;-84
2021/11/27 01:52:29;;;;;;;6.30;4.60;;;8.30;76.70;;;;;;5019139;28;20041;-83
2021/11/27 01:54:55;;;;;;;5.63;4.38;;;8.30;76.70;;;;;;5018249;28;20030;-81
2021/11/27 01:57:21;;;;;;;6.13;3.80;;;8.30;76.70;;;;;;5015500;28;20029;-82
2021/11/27 01:59:47;;;;;;;5.80;3.85;;;8.30;76.70;;;;;;5016868;28;20056;-82
2021/11/27 02:02:15;;;;;;;4.63;3.33;;;8.30;76.70;;;;;;5034084;28;20026;-82
2021/11/27 02:04:42;;;;;;;5.07;3.92;;;8.30;76.70;;;;;;5019629;28;20025;-82
2021/11/27 02:07:09;;;;;;;4.72;3.42;;;8.20;76.60;;;;;;5017119;28;20026;-81
2021/11/27 02:09:37;;;;;;;5.13;3.35;;;8.30;76.70;;;;;;5017413;28;20033;-82
2021/11/27 02:12:07;;;;;;;5.00;3.30;;;8.30;76.70;;;;;;5037124;28;20032;-81
2021/11/27 02:14:35;;;;;;;4.97;3.03;;;8.30;76.70;;;;;;5016487;28;20064;-82
2021/11/27 02:17:10;;;;;;;4.32;2.97;;;8.30;76.60;;;;;;5006327;28;20064;-85
2021/11/27 02:19:38;;;;;;;3.70;2.75;;;8.30;76.70;;;;;;5026856;28;20029;-82
2021/11/27 02:22:05;;;;;;;4.75;2.70;;;8.30;76.60;;;;;;5015607;28;20033;-83
2021/11/27 02:24:41;;;;;;;4.05;2.92;;;8.20;76.60;;;;;;5011074;28;20026;-83
2021/11/27 02:27:08;;;;;;;4.38;2.90;;;8.20;76.60;;;;;;5017429;28;20029;-84
2021/11/27 02:29:35;;;;;;;4.10;2.40;;;8.30;76.60;;;;;;5033733;28;20250;-82
2021/11/27 02:32:03;;;;;;;5.25;2.80;;;8.30;76.60;;;;;;5020366;28;20074;-81
2021/11/27 02:34:29;;;;;;;3.28;2.33;;;8.20;76.60;;;;;;5011890;28;20021;-82
2021/11/27 02:36:59;;;;;;;3.78;2.30;;;8.30;76.60;;;;;;5030579;28;20458;-81
2021/11/27 02:39:26;;;;;;;3.97;2.40;;;8.20;76.50;;;;;;5012656;28;20036;-81
2021/11/27 02:41:53;;;;;;;3.03;2.25;;;8.20;76.50;;;;;;5003046;28;20033;-81
2021/11/27 02:44:26;;;;;;;2.60;2.17;;;8.20;76.50;;;;;;5019025;28;20044;-81
2021/11/27 02:46:53;;;;;;;3.25;2.00;;;8.20;76.60;;;;;;5035342;28;20116;-81
2021/11/27 02:49:18;;;;;;;2.40;1.83;;;8.20;76.70;;;;;;5017947;28;20044;-81
2021/11/27 02:51:45;;;;;;;2.97;2.00;;;8.20;76.50;;;;;;5019556;28;20053;-81
2021/11/27 02:54:12;;;;;;;2.67;2.03;;;8.20;76.50;;;;;;5036018;28;20123;-81
2021/11/27 02:56:39;;;;;;;2.47;1.80;;;8.20;76.60;;;;;;5016466;28;20037;-80
2021/11/27 02:59:17;;;;;;;2.28;1.75;;;8.20;76.60;;;;;;5026307;28;20717;-83
2021/11/27 03:01:44;;;;;;;1.92;1.73;;;8.10;77.20;;;;;;5044284;28;20496;-81
2021/11/27 03:04:11;;;;;;;2.08;1.63;;;8.10;76.50;;;;;;5016477;28;20044;-81
2021/11/27 03:06:38;;;;;;;1.77;1.42;;;8.10;76.50;;;;;;5017969;28;20096;-81
2021/11/27 03:09:06;;;;;;;1.70;1.60;;;8.10;76.50;;;;;;5014445;28;20045;-84
2021/11/27 03:11:32;;;;;;;1.88;1.50;;;8.20;76.60;;;;;;5026595;28;20056;-81
2021/11/27 03:13:58;;;;;;;1.60;1.50;;;8.10;76.50;;;;;;5033268;28;20193;-81
2021/11/27 03:16:29;;;;;;;2.28;1.40;;;8.10;76.50;;;;;;5019115;28;20469;-81
2021/11/27 03:18:55;;;;;;;1.67;1.50;;;8.10;76.60;;;;;;5032833;28;20061;-81
2021/11/27 03:21:22;;;;;;;1.80;1.30;;;8.10;76.50;;;;;;5010787;28;20082;-81
2021/11/27 03:23:49;;;;;;;1.48;1.38;;;8.10;76.50;;;;;;5013330;28;20026;-81
2021/11/27 03:26:16;;;;;;;1.38;1.27;;;8.10;76.50;;;;;;5028554;28;20035;-81
2021/11/27 03:28:43;;;;;;;1.48;1.38;;;8.10;76.50;;;;;;5019600;28;20029;-81
2021/11/27 03:31:09;;;;;;;1.20;1.10;;;8.00;76.50;;;;;;5035451;28;20022;-82
2021/11/27 03:33:35;;;;;;;1.40;1.30;;;8.10;76.50;;;;;;5012538;28;20033;-82
2021/11/27 03:36:04;;;;;;;1.30;1.20;;;8.10;76.50;;;;;;5014190;28;20029;-81
2021/11/27 03:38:32;;;;;;;1.30;1.20;;;8.00;76.50;;;;;;5030122;28;20033;-82
2021/11/27 03:40:59;;;;;;;1.40;1.30;;;8.10;76.50;;;;;;5034923;28;20124;-81
2021/11/27 03:43:25;;;;;;;1.20;1.10;;;8.00;76.50;;;;;;5031712;28;20025;-81
2021/11/27 03:45:52;;;;;;;1.48;1.20;;;8.00;76.50;;;;;;5016134;28;20037;-81
2021/11/27 03:48:27;;;;;;;1.40;1.30;;;8.00;76.50;;;;;;5012021;28;20033;-82
2021/11/27 03:51:17;;;;;;;1.27;1.13;;;8.00;76.50;;;;;;5017589;28;20482;-82
2021/11/27 03:53:45;;;;;;;1.08;1.08;;;8.00;76.50;;;;;;5033251;28;20033;-81
2021/11/27 03:56:26;;;;;;;1.33;1.20;;;8.00;76.50;;;;;;5035573;28;20037;-81
2021/11/27 03:58:53;;;;;;;1.30;1.20;;;8.00;76.50;;;;;;5034579;28;20029;-82
2021/11/27 04:01:21;;;;;;;1.33;1.20;;;8.00;76.50;;;;;;4986433;28;20036;-82
2021/11/27 04:03:51;;;;;;;1.23;1.13;;;7.90;76.50;;;;;;5034186;28;20523;-83
2021/11/27 04:06:20;;;;;;;1.15;1.10;;;7.90;76.50;;;;;;5035059;28;20469;-82
2021/11/27 04:08:47;;;;;;;1.50;1.10;;;7.90;76.50;;;;;;5034783;28;20033;-82
2021/11/27 04:11:13;;;;;;;1.58;1.17;;;7.90;76.50;;;;;;5018327;28;20033;-81
2021/11/27 04:13:39;;;;;;;0.82;0.82;;;7.90;76.50;;;;;;5034112;28;20466;-82
2021/11/27 04:16:07;;;;;;;0.90;0.90;;;7.90;76.50;;;;;;5028262;28;20435;-81
2021/11/27 04:18:33;;;;;;;1.42;1.13;;;7.90;76.50;;;;;;5015509;28;20164;-83
2021/11/27 04:20:59;;;;;;;0.90;0.90;;;7.90;76.50;;;;;;5001578;28;20119;-81
2021/11/27 04:23:26;;;;;;;1.05;1.05;;;7.90;76.50;;;;;;5027997;28;20021;-82
2021/11/27 04:25:53;;;;;;;1.15;1.05;;;7.90;76.50;;;;;;5019435;28;20044;-81
2021/11/27 04:28:19;;;;;;;0.90;0.90;;;7.80;76.40;;;;;;5019142;28;20033;-80
2021/11/27 04:30:46;;;;;;;1.20;1.10;;;7.90;76.50;;;;;;5015587;28;20024;-81
2021/11/27 04:33:13;;;;;;;1.30;1.10;;;7.90;76.50;;;;;;5018570;28;20025;-80
2021/11/27 04:35:49;;;;;;;1.10;1.10;;;7.80;76.40;;;;;;5016369;28;20060;-80
2021/11/27 04:38:19;;;;;;;0.98;0.98;;;7.80;76.40;;;;;;5012790;28;20477;-80
2021/11/27 04:40:45;;;;;;;0.90;0.90;;;7.80;76.40;;;;;;5014333;28;20086;-81
2021/11/27 04:43:14;;;;;;;0.80;0.80;;;7.80;76.40;;;;;;5003883;28;20415;-80
2021/11/27 04:45:41;;;;;;;0.90;0.90;;;7.80;76.40;;;;;;5018371;28;20033;-80
2021/11/27 04:48:07;;;;;;;1.00;0.98;;;7.70;76.30;;;;;;5017231;28;20033;-82
2021/11/27 04:50:33;;;;;;;1.10;1.00;;;7.70;76.30;;;;;;5014674;28;20616;-80
2021/11/27 04:53:03;;;;;;;1.00;1.00;;;7.70;76.40;;;;;;5004061;28;20060;-81
2021/11/27 04:55:32;;;;;;;0.95;0.95;;;7.70;76.40;;;;;;5027137;28;20048;-81
2021/11/27 04:58:02;;;;;;;0.80;0.80;;;7.70;76.40;;;;;;4984131;28;20116;-81
2021/11/27 05:00:30;;;;;;;1.02;0.93;;;7.70;76.40;;;;;;5024250;28;20041;-82
2021/11/27 05:02:56;;;;;;;0.80;0.80;;;7.70;76.40;;;;;;5019638;28;20104;-80
2021/11/27 05:05:23;;;;;;;0.90;0.90;;;7.60;76.30;;;;;;5003790;28;20123;-80
2021/11/27 05:07:50;;;;;;;0.90;0.90;;;7.60;76.40;;;;;;5015299;28;20072;-81
2021/11/27 05:10:17;;;;;;;1.08;0.80;;;7.60;76.30;;;;;;5026023;28;20087;-81
2021/11/27 05:12:43;;;;;;;0.98;0.98;;;7.60;76.30;;;;;;5009680;28;20033;-80
2021/11/27 05:15:10;;;;;;;0.80;0.80;;;7.60;76.40;;;;;;5015563;28;20021;-81
2021/11/27 05:17:39;;;;;;;0.80;0.80;;;7.60;76.40;;;;;;5020267;28;20017;-80
2021/11/27 05:20:15;;;;;;;1.20;1.10;;;7.60;76.30;;;;;;5020315;28;20029;-81
2021/11/27 05:22:41;;;;;;;1.10;1.00;;;7.50;76.30;;;;;;5018162;28;20029;-80
2021/11/27 05:25:08;;;;;;;1.00;1.00;;;7.50;76.30;;;;;;5017202;28;20067;-81
2021/11/27 05:27:52;;;;;;;0.90;0.90;;;7.50;76.30;;;;;;5051908;28;20036;-80
2021/11/27 05:30:31;;;;;;;1.05;0.93;;;7.50;76.30;;;;;;5018219;28;20033;-80
2021/11/27 05:35:36;;;;;;;0.90;0.90;;;7.50;76.40;;;;;;4999081;28;20445;-80
2021/11/27 05:38:02;;;;;;;1.10;1.00;;;7.50;76.40;;;;;;5021114;28;20029;-80
2021/11/27 05:40:28;;;;;;;0.88;0.88;;;7.40;76.40;;;;;;4999905;28;20541;-85
2021/11/27 05:42:54;;;;;;;0.80;0.80;;;7.40;76.40;;;;;;4999723;28;20033;-81
2021/11/27 05:45:27;;;;;;;0.98;0.98;;;7.40;76.30;;;;;;5017944;28;20123;-80
2021/11/27 05:47:54;;;;;;;0.90;0.90;;;7.40;76.30;;;;;;4982988;28;20074;-81
2021/11/27 05:50:24;;;;;;;0.85;0.85;;;7.40;76.30;;;;;;5016338;28;20037;-81
2021/11/27 05:52:51;;;;;;;1.10;1.00;;;7.40;76.30;;;;;;5006396;28;20513;-81
2021/11/27 05:55:18;;;;;;;1.10;1.00;;;7.40;76.30;;;;;;4981288;28;20037;-86
2021/11/27 05:57:44;;;;;;;1.20;1.10;;;7.40;76.30;;;;;;5019221;28;20511;-81
2021/11/27 06:00:12;;;;;;;0.93;0.93;;;7.40;76.30;;;;;;5020488;28;20397;-83
2021/11/27 06:02:41;;;;;;;1.00;1.00;;;7.40;76.40;;;;;;5037595;28;20484;-80
2021/11/27 06:05:08;;;;;;;1.48;1.10;;;7.40;76.40;;;;;;5020994;28;20500;-80
2021/11/27 06:07:35;;;;;;;1.40;1.30;;;7.30;76.30;;;;;;5018945;28;20133;-81
2021/11/27 06:10:01;;;;;;;1.50;1.40;;;7.30;76.30;;;;;;5004121;28;20102;-80
2021/11/27 06:12:26;;;;;;;1.30;1.20;;;7.30;76.30;;;;;;5020495;28;20029;-80
2021/11/27 06:14:52;;;;;;;1.30;1.20;;;7.30;76.30;;;;;;5008610;28;20043;-80
2021/11/27 06:17:18;;;;;;;1.15;1.10;;;7.30;76.30;;;;;;5036582;28;20023;-80
2021/11/27 06:19:44;;;;;;;1.58;1.48;;;7.30;76.40;;;;;;5021937;28;20450;-80
2021/11/27 06:22:10;;;;;;;1.70;1.55;;;7.30;76.30;;;;;;5020693;28;20048;-81
2021/11/27 06:24:36;;;;;;;1.45;1.35;;;7.30;76.30;;;;;;5017237;28;20477;-81
2021/11/27 06:27:02;;;;;;;1.40;1.30;;;7.20;76.30;;;;;;5007546;28;20033;-80
2021/11/27 06:29:28;;;;;;;1.60;1.42;;;7.20;76.30;;;;;;5014856;28;20044;-80
2021/11/27 06:31:54;;;;;;;1.80;1.52;;;7.20;76.30;;;;;;5004254;28;20024;-80
2021/11/27 06:34:19;;;;;;;1.40;1.30;;;7.20;76.30;;;;;;5017241;28;20061;-80
2021/11/27 06:36:45;;;;;;;1.92;1.70;;;7.20;76.30;;;;;;5039145;28;20505;-80
2021/11/27 06:39:11;;;;;;;1.55;1.45;;;7.20;76.30;;;;;;4993570;28;20059;-81
2021/11/27 06:41:37;;;;;;;1.63;1.45;;;7.20;76.30;;;;;;5017699;28;20032;-81
2021/11/27 06:44:47;;;;;;;1.60;1.45;;;7.20;76.40;;;;;;5016717;28;20041;-80
2021/11/27 06:47:21;;;;;;;2.00;1.80;;;7.10;76.30;;;;;;5017290;28;20041;-80
2021/11/27 06:49:48;;;;;;;1.70;1.60;;;7.10;76.40;;;;;;5002130;28;20037;-81
2021/11/27 06:52:15;;;;;;;2.05;1.60;;;7.10;76.30;;;;;;5003173;28;20049;-81
2021/11/27 06:54:42;;;;;;;2.13;1.75;;;7.10;76.30;;;;;;4997748;28;20461;-82
2021/11/27 06:57:09;;;;;;;2.22;1.77;;;7.10;76.30;;;;;;4996077;28;20545;-81
2021/11/27 06:59:36;;;;;;;2.00;1.58;;;7.10;76.30;;;;;;4993992;28;20030;-81
2021/11/27 07:02:22;;;;;;;1.60;1.42;;;7.10;76.30;;;;;;4966264;28;20352;-81
2021/11/27 07:05:07;;;;;;;1.70;1.58;;;7.00;76.30;;;;;;5019120;28;20120;-81
2021/11/27 07:07:45;;;;;;;2.25;1.80;;;7.00;76.20;;;;;;4983106;28;20037;-80
2021/11/27 07:10:29;;;;;;;1.80;1.70;;;7.00;76.30;;;;;;4994165;28;20042;-80
2021/11/27 07:13:18;;;;;;;1.80;1.65;;;7.00;76.30;;;;;;5002243;28;20281;-81
2021/11/27 07:15:47;;;;;;;2.28;1.80;;;7.00;76.30;;;;;;4990096;28;21814;-81
2021/11/27 07:18:14;;;;;;;1.70;1.60;;;6.90;76.30;;;;;;4989731;28;20034;-80
2021/11/27 07:20:40;;;;;;;1.85;1.65;;;6.90;76.30;;;;;;4988728;28;20057;-81
2021/11/27 07:23:08;;;;;;;2.03;1.65;;;6.90;76.30;;;;;;4999602;28;20057;-81
2021/11/27 07:25:35;;;;;;;2.33;1.80;;;6.90;76.30;;;;;;5017918;28;20506;-80
2021/11/27 07:28:34;;;;;;;1.83;1.65;;;6.90;76.30;;;;;;4984700;28;20466;-81
2021/11/27 07:31:01;;;;;;;1.90;1.75;;;6.90;76.20;;;;;;4964279;28;20030;-84
2021/11/27 07:33:28;;;;;;;2.00;1.80;;;6.90;76.30;;;;;;4983747;28;20058;-80
2021/11/27 07:35:53;;;;;;;1.70;1.60;;;6.90;76.30;;;;;;4987263;28;20392;-84
2021/11/27 07:38:19;;;;;;;1.88;1.70;;;6.90;76.30;;;;;;4992924;28;20555;-81
2021/11/27 07:40:45;;;;;;;1.42;1.33;;;6.90;76.30;;;;;;5011230;28;20115;-82
2021/11/27 07:43:11;;;;;;;1.70;1.50;;;6.80;76.30;;;;;;5008328;28;20065;-82
2021/11/27 07:45:41;;;;;;;1.60;1.50;;;6.80;76.30;;;;;;4996972;28;20917;-81
2021/11/27 07:48:31;;;;;;;2.00;1.60;;;6.80;76.30;;;;;;5006858;28;20109;-80
2021/11/27 07:51:15;;;;;;;1.73;1.50;;;6.80;76.20;;;;;;5011965;28;20460;-80
2021/11/27 07:53:45;;;;;;;2.10;1.70;;;6.80;76.20;;;;;;4986555;28;20044;-80
2021/11/27 07:56:11;;;;;;;1.83;1.45;;;6.70;76.30;;;;;;5003896;28;20605;-80
2021/11/27 07:58:38;;;;;;;1.92;1.45;;;6.80;76.30;;;;;;5030189;28;20064;-81
2021/11/27 08:01:04;;;;;;;1.77;1.50;;;6.70;76.30;;;;;;5017304;28;20477;-84
2021/11/27 08:03:30;;;;;;;1.88;1.60;;;6.70;76.30;;;;;;5008759;28;20406;-79
2021/11/27 08:05:56;;;;;;;2.53;1.92;;;6.70;76.30;;;;;;5027536;28;20047;-81
2021/11/27 08:08:21;;;;;;;1.60;1.50;;;6.70;76.30;;;;;;5012692;28;20038;-79
2021/11/27 08:10:47;;;;;;;1.85;1.55;;;6.70;76.30;;;;;;4997535;28;20029;-79
2021/11/27 08:13:14;;;;;;;1.65;1.55;;;6.70;76.30;;;;;;5045489;28;20039;-82
2021/11/27 08:15:39;;;;;;;2.28;1.83;;;6.70;76.30;;;;;;5014822;28;20052;-79
2021/11/27 08:18:05;;;;;;;1.95;1.65;;;6.70;76.30;;;;;;5005286;28;20022;-80
2021/11/27 08:20:32;;;;;;;1.67;1.58;;;6.70;76.30;;;;;;4999644;28;20033;-84
2021/11/27 08:22:57;;;;;;;2.10;1.83;;;6.70;76.30;;;;;;5011659;28;20031;-82
2021/11/27 08:25:23;;;;;;;1.90;1.75;;;6.70;76.30;;;;;;5012218;28;20037;-81
2021/11/27 08:27:49;;;;;;;2.45;1.88;;;6.70;76.30;;;;;;5027118;28;20033;-83
2021/11/27 08:30:15;;;;;;;2.60;2.00;;;6.60;76.20;;;;;;5004456;28;20052;-81
2021/11/27 08:32:42;;;;;;;2.65;1.90;;;6.60;76.20;;;;;;4991739;28;21405;-82
2021/11/27 08:35:08;;;;;;;2.08;1.88;;;6.60;76.30;;;;;;5003827;28;20025;-82
2021/11/27 08:37:34;;;;;;;3.53;2.20;;;6.60;76.30;;;;;;5016311;28;20029;-83
2021/11/27 08:40:01;;;;;;;2.53;2.22;;;6.60;76.20;;;;;;5026351;28;20025;-81
2021/11/27 08:42:27;;;;;;;3.45;2.10;;;6.60;76.30;;;;;;5012783;28;20478;-81
2021/11/27 08:44:53;;;;;;;2.38;2.00;;;6.60;76.30;;;;;;4995772;28;20057;-85
2021/11/27 08:47:20;;;;;;;2.67;2.08;;;6.60;76.30;;;;;;5033077;28;20029;-80
2021/11/27 08:49:47;;;;;;;2.40;1.95;;;6.60;76.30;;;;;;5026007;28;20029;-79
2021/11/27 08:52:13;;;;;;;2.55;2.00;;;6.60;76.40;;;;;;5008126;28;20053;-81
2021/11/27 08:54:39;;;;;;;2.65;2.25;;;6.60;76.30;;;;;;5010217;28;20457;-81
2021/11/27 08:57:05;;;;;;;2.22;1.85;;;6.50;76.80;;;;;;5018967;28;20029;-81
2021/11/27 08:59:31;;;;;;;2.97;2.17;;;6.50;76.20;;;;;;5030338;28;20079;-80
2021/11/27 09:01:58;;;;;;;2.22;2.00;;;6.50;76.30;;;;;;5032178;28;20108;-81
2021/11/27 09:04:27;;;;;;;2.55;2.10;;;6.50;76.30;;;;;;4999353;28;20030;-81
2021/11/27 09:06:53;;;;;;;2.45;1.90;;;6.50;76.30;;;;;;5004245;28;20467;-80
2021/11/27 09:09:20;;;;;;;2.95;2.25;;;6.50;76.20;;;;;;5011724;28;20040;-84
2021/11/27 09:11:47;;;;;;;2.58;2.10;;;6.50;76.30;;;;;;5014951;28;20056;-81
2021/11/27 09:57:53;;;;;;;2.10;1.40;;;6.20;76.70;;;;;;5235103;23;20557;-80
2021/11/27 10:00:21;;;;;;;1.80;1.50;;;6.20;76.60;;;;;;4987601;28;20037;-83
2021/11/27 10:02:53;;;;;;;1.90;1.70;;;6.20;76.70;;;;;;5006581;28;21173;-81
2021/11/27 10:05:20;;;;;;;2.00;1.67;;;6.20;76.70;;;;;;4990418;28;20026;-82
2021/11/27 10:07:47;;;;;;;1.67;1.58;;;6.20;76.70;;;;;;4983942;28;20106;-82
2021/11/27 10:10:15;;;;;;;1.60;1.50;;;6.30;76.70;;;;;;4977371;28;20030;-83
2021/11/27 10:12:42;;;;;;;1.77;1.52;;;6.30;76.70;;;;;;4977435;28;20034;-82
2021/11/27 10:15:09;;;;;;;1.60;1.50;;;6.30;76.60;;;;;;4973883;28;20468;-83
2021/11/27 10:17:35;;;;;;;1.52;1.42;;;6.30;76.60;;;;;;4963025;28;20023;-81
2021/11/27 10:20:05;;;;;;;1.52;1.40;;;6.30;76.50;;;;;;4967471;28;20033;-85
2021/11/27 10:22:37;;;;;;;1.70;1.60;;;6.30;76.50;;;;;;4977353;28;20049;-82
2021/11/27 10:25:28;;;;;;;1.88;1.55;;;6.30;76.50;;;;;;4995177;28;20029;-82
2021/11/27 10:28:01;;;;;;;2.45;1.70;;;6.40;76.70;;;;;;4995011;28;20042;-83
2021/11/27 10:30:27;;;;;;;1.73;1.52;;;6.40;76.50;;;;;;4992712;28;20120;-83
2021/11/27 10:32:55;;;;;;;1.70;1.50;;;6.30;76.40;;;;;;5008147;28;20050;-83
2021/11/27 10:35:21;;;;;;;1.60;1.50;;;6.30;76.50;;;;;;4970787;28;20058;-82
2021/11/27 10:37:55;;;;;;;2.00;1.70;;;6.40;76.50;;;;;;4972564;28;20015;-81
2021/11/27 10:40:29;;;;;;;1.65;1.35;;;6.40;76.60;;;;;;4964304;28;20034;-81
2021/11/27 10:42:58;;;;;;;1.98;1.60;;;6.40;76.60;;;;;;4989847;28;20034;-80
2021/11/27 10:45:30;;;;;;;1.80;1.60;;;6.40;76.50;;;;;;4977819;28;20510;-79
2021/11/27 10:48:14;;;;;;;2.15;1.60;;;6.40;76.50;;;;;;4992675;28;20076;-82
2021/11/27 10:50:49;;;;;;;2.38;1.85;;;6.40;76.70;;;;;;4999592;28;20030;-90
2021/11/27 10:53:17;;;;;;;2.40;1.73;;;6.40;76.60;;;;;;4969483;28;20044;-87
2021/11/27 10:55:44;;;;;;;2.35;1.83;;;6.40;76.60;;;;;;4968321;28;20114;-86
2021/11/27 10:58:14;;;;;;;2.30;1.73;;;6.40;76.60;;;;;;4971030;28;20049;-85
2021/11/27 11:00:49;;;;;;;2.97;2.30;;;6.50;76.70;;;;;;4982350;28;20058;-86
2021/11/27 11:03:29;;;;;;;3.30;2.00;;;6.50;76.70;;;;;;5004176;28;20026;-85
2021/11/27 11:05:56;;;;;;;2.50;1.90;;;6.50;76.70;;;;;;4983728;28;20033;-86
2021/11/27 11:08:36;;;;;;;2.70;2.20;;;6.50;76.70;;;;;;4987786;28;20037;-90
2021/11/27 11:11:25;;;;;;;3.28;2.42;;;6.50;76.80;;;;;;5002697;28;20030;-88
2021/11/27 11:14:12;;;;;;;4.03;2.45;;;6.50;76.80;;;;;;4985930;28;20113;-86
2021/11/27 11:16:54;;;;;;;3.63;2.28;;;6.50;76.70;;;;;;4987783;28;20038;-84
2021/11/27 11:19:20;;;;;;;3.78;2.53;;;6.60;76.80;;;;;;4982661;28;20034;-85
2021/11/27 11:22:16;;;;;;;4.38;2.55;;;6.60;76.70;;;;;;5003031;28;20033;-85
2021/11/27 11:24:44;;;;;;;3.95;2.63;;;6.60;76.90;;;;;;4991473;28;20066;-84
2021/11/27 11:27:11;;;;;;;4.10;2.63;;;6.60;76.70;;;;;;4977928;28;20476;-84
2021/11/27 11:29:47;;;;;;;4.07;2.80;;;6.60;76.70;;;;;;4976585;28;20043;-85
2021/11/27 11:32:21;;;;;;;5.75;3.10;;;6.70;76.80;;;;;;5002871;28;20398;-82
2021/11/27 11:34:48;;;;;;;5.03;2.90;;;6.70;76.80;;;;;;4976133;28;20023;-85
2021/11/27 11:37:14;;;;;;;4.55;2.97;;;6.70;76.80;;;;;;4982214;28;20015;-83
2021/11/27 11:39:42;;;;;;;4.90;3.13;;;6.80;76.80;;;;;;4968068;28;20030;-83
2021/11/27 11:42:09;;;;;;;5.82;3.30;;;6.80;76.80;;;;;;4959843;28;20041;-83
2021/11/27 11:44:36;;;;;;;5.55;3.53;;;6.80;76.80;;;;;;4989258;28;20031;-84
2021/11/27 11:47:03;;;;;;;4.78;3.17;;;6.80;76.80;;;;;;4978208;28;20031;-82
2021/11/27 11:49:53;;;;;;;5.30;3.65;;;6.80;76.70;;;;;;4987258;28;20181;-86
2021/11/27 11:52:41;;;;;;;;;;;;;;;;;;;;;
2021/11/27 11:55:19;;;;;;;6.03;3.38;;;6.90;76.80;;;;;;4993227;28;20041;-87
2021/11/27 11:58:03;;;;;;;5.38;3.58;;;6.90;76.80;;;;;;4999258;28;20057;-87
2021/11/27 12:00:43;;;;;;;4.60;3.28;;;6.90;76.70;;;;;;4976904;28;20030;-87
2021/11/27 12:03:14;;;;;;;5.93;3.75;;;7.00;76.90;;;;;;4993269;28;20489;-86
2021/11/27 12:06:06;;;;;;;5.88;3.58;;;7.00;76.80;;;;;;4990319;28;20089;-86
2021/11/27 12:09:00;;;;;;;6.35;3.88;;;7.00;76.80;;;;;;4975408;28;20034;-86
2021/11/27 12:11:45;;;;;;;5.35;3.78;;;7.00;76.90;;;;;;4974135;28;20049;-90
2021/11/27 12:14:24;;;;;;;6.53;3.67;;;7.00;76.90;;;;;;4985361;28;20026;-86
2021/11/27 12:17:20;;;;;;;4.95;3.10;;;7.10;76.80;;;;;;4989204;28;20034;-87
2021/11/27 12:19:58;;;;;;;5.15;3.40;;;7.10;76.90;;;;;;4989773;28;20093;-89
2021/11/27 12:22:23;;;;;;;6.00;3.92;;;7.10;76.80;;;;;;4984033;28;20030;-86
2021/11/27 12:25:25;;;;;;;6.65;3.90;;;7.20;76.80;;;;;;4971154;28;20072;-88
2021/11/27 12:28:03;;;;;;;6.93;3.95;;;7.10;76.90;;;;;;4971785;28;20026;-86
2021/11/27 12:30:51;;;;;;;5.72;3.45;;;7.20;76.90;;;;;;4999088;28;20038;-87
2021/11/27 12:33:58;;;;;;;6.30;4.05;;;7.20;76.90;;;;;;4984922;28;20039;-87
2021/11/27 12:36:34;;;;;;;6.05;3.90;;;7.20;76.90;;;;;;4987847;28;20042;-88
2021/11/27 12:39:08;;;;;;;6.07;3.63;;;7.20;76.80;;;;;;4964230;28;20073;-85
2021/11/27 12:41:47;;;;;;;5.40;3.47;;;7.20;76.90;;;;;;4984808;28;20191;-85
2021/11/27 12:44:41;;;;;;;5.50;3.80;;;7.30;76.90;;;;;;4986123;28;20057;-84
2021/11/27 12:47:13;;;;;;;6.80;4.00;;;7.30;77.00;;;;;;4980004;28;20023;-79
2021/11/27 12:49:39;;;;;;;5.63;3.85;;;7.30;76.80;;;;;;4979929;28;20038;-84
2021/11/27 12:52:13;;;;;;;6.78;3.65;;;7.30;76.80;;;;;;4967908;28;20058;-78
2021/11/27 12:54:40;;;;;;;5.75;4.18;;;7.40;76.90;;;;;;4969684;28;20049;-83
2021/11/27 12:57:06;;;;;;;6.13;4.40;;;7.40;76.90;;;;;;4966628;28;20027;-84
2021/11/27 12:59:44;;;;;;;5.63;3.75;;;7.50;76.90;;;;;;4988961;28;20054;-85
2021/11/27 13:02:16;;;;;;;6.82;4.43;;;7.50;76.90;;;;;;4985941;28;20081;-89
2021/11/27 13:04:43;;;;;;;7.30;4.25;;;7.50;76.90;;;;;;4994511;28;20077;-85
2021/11/27 13:07:10;;;;;;;6.38;3.95;;;7.50;76.80;;;;;;4980896;28;20794;-85
2021/11/27 13:09:36;;;;;;;6.07;3.75;;;7.50;76.80;;;;;;4986868;28;20035;-84
2021/11/27 13:12:14;;;;;;;5.90;4.13;;;7.60;76.80;;;;;;4989305;28;20108;-84
2021/11/27 13:14:40;;;;;;;6.60;4.03;;;7.60;76.90;;;;;;4982533;28;20102;-83
2021/11/27 13:17:14;;;;;;;6.85;3.63;;;7.60;76.80;;;;;;4975721;28;20062;-83
2021/11/27 13:19:46;;;;;;;7.50;4.07;;;7.60;76.80;;;;;;4983211;28;20057;-87
2021/11/27 13:22:16;;;;;;;6.20;4.20;;;7.60;76.80;;;;;;4983757;28;20085;-81
2021/11/27 13:24:55;;;;;;;4.90;3.55;;;7.70;76.80;;;;;;4986652;28;20031;-80
2021/11/27 13:27:33;;;;;;;5.13;3.67;;;7.70;76.80;;;;;;4986955;28;20030;-81
2021/11/27 13:30:00;;;;;;;6.30;3.85;;;7.70;76.80;;;;;;4980904;28;20096;-86
2021/11/27 13:32:42;;;;;;;5.55;3.60;;;7.70;76.70;;;;;;4983765;28;20376;-86
2021/11/27 13:35:10;;;;;;;5.15;3.35;;;7.80;76.80;;;;;;4998437;28;20030;-86
2021/11/27 13:37:58;;;;;;;5.57;3.28;;;7.80;76.70;;;;;;4999665;28;20026;-84
2021/11/27 13:40:30;;;;;;;5.43;3.65;;;7.80;76.80;;;;;;4997850;28;20541;-84
2021/11/27 13:43:16;;;;;;;5.65;3.50;;;7.80;76.70;;;;;;4981725;28;20026;-83
2021/11/27 13:45:42;;;;;;;5.20;3.38;;;7.80;76.80;;;;;;4981519;28;20047;-85
2021/11/27 13:48:10;;;;;;;4.85;3.20;;;7.80;76.60;;;;;;4982189;28;20033;-93
2021/11/27 13:50:42;;;;;;;6.28;3.42;;;7.80;76.70;;;;;;4998494;28;20038;-85
2021/11/27 13:53:09;;;;;;;6.47;3.90;;;7.80;76.70;;;;;;4982180;28;20484;-84
2021/11/27 13:55:47;;;;;;;5.05;3.60;;;7.90;76.70;;;;;;4998817;28;20049;-84
2021/11/27 13:58:16;;;;;;;4.32;2.92;;;7.90;76.80;;;;;;4999126;28;20043;-85
2021/11/27 14:00:42;;;;;;;5.60;3.50;;;7.90;76.70;;;;;;4982497;28;20039;-85